sensor_id;sensor_type;location;lat;lon;timestamp;P1;durP1;ratioP1;P2;durP2;ratioP2
14526;SDS011;7350;51.208;4.238;2023-04-16T00:02:01;1.55;;;0.75;;
14526;SDS011;7350;51.208;4.238;2023-04-16T00:04:28;1.65;;;0.88;;
14526;SDS011;7350;51.208;4.238;2023-04-16T00:06:55;3.28;;;1.10;;
14526;SDS011;7350;51.208;4.238;2023-04-16T00:09:22;1.55;;;0.70;;
14526;SDS011;7350;51.208;4.238;2023-04-16T00:11:49;1.90;;;1.00;;
14526;SDS011;7350;51.208;4.238;2023-04-16T00:14:17;2.13;;;0.70;;
14526;SDS011;7350;51.208;4.238;2023-04-16T00:16:44;1.45;;;0.80;;
14526;SDS011;7350;51.208;4.238;2023-04-16T00:19:11;0.98;;;0.75;;
14526;SDS011;7350;51.208;4.238;2023-04-16T00:21:38;3.50;;;0.93;;
14526;SDS011;7350;51.208;4.238;2023-04-16T00:24:05;1.85;;;0.98;;
14526;SDS011;7350;51.208;4.238;2023-04-16T00:26:32;1.80;;;0.93;;
14526;SDS011;7350;51.208;4.238;2023-04-16T00:28:59;2.00;;;1.00;;
14526;SDS011;7350;51.208;4.238;2023-04-16T00:31:28;2.38;;;0.90;;
14526;SDS011;7350;51.208;4.238;2023-04-16T00:33:57;1.83;;;0.90;;
14526;SDS011;7350;51.208;4.238;2023-04-16T00:36:25;2.15;;;0.82;;
14526;SDS011;7350;51.208;4.238;2023-04-16T00:38:52;1.98;;;1.00;;
14526;SDS011;7350;51.208;4.238;2023-04-16T00:41:20;1.42;;;0.80;;
14526;SDS011;7350;51.208;4.238;2023-04-16T00:43:47;1.65;;;0.85;;
14526;SDS011;7350;51.208;4.238;2023-04-16T00:46:14;1.23;;;0.80;;
14526;SDS011;7350;51.208;4.238;2023-04-16T00:48:43;1.70;;;0.80;;
14526;SDS011;7350;51.208;4.238;2023-04-16T00:51:10;3.30;;;1.17;;
14526;SDS011;7350;51.208;4.238;2023-04-16T00:53:37;2.25;;;0.90;;
14526;SDS011;7350;51.208;4.238;2023-04-16T00:56:05;2.08;;;1.00;;
14526;SDS011;7350;51.208;4.238;2023-04-16T00:58:33;2.17;;;0.70;;
14526;SDS011;7350;51.208;4.238;2023-04-16T01:01:00;1.35;;;0.80;;
14526;SDS011;7350;51.208;4.238;2023-04-16T01:03:30;2.08;;;0.95;;
14526;SDS011;7350;51.208;4.238;2023-04-16T01:06:04;1.83;;;0.90;;
14526;SDS011;7350;51.208;4.238;2023-04-16T01:08:32;1.75;;;0.75;;
14526;SDS011;7350;51.208;4.238;2023-04-16T01:10:59;1.23;;;0.73;;
14526;SDS011;7350;51.208;4.238;2023-04-16T01:13:26;2.17;;;0.77;;
14526;SDS011;7350;51.208;4.238;2023-04-16T01:15:53;1.50;;;0.88;;
14526;SDS011;7350;51.208;4.238;2023-04-16T01:18:20;1.88;;;0.98;;
14526;SDS011;7350;51.208;4.238;2023-04-16T01:20:49;2.60;;;0.90;;
14526;SDS011;7350;51.208;4.238;2023-04-16T01:23:16;1.58;;;0.70;;
14526;SDS011;7350;51.208;4.238;2023-04-16T01:25:43;3.00;;;1.10;;
14526;SDS011;7350;51.208;4.238;2023-04-16T01:28:10;2.35;;;1.10;;
14526;SDS011;7350;51.208;4.238;2023-04-16T01:30:37;2.22;;;0.80;;
14526;SDS011;7350;51.208;4.238;2023-04-16T01:33:04;1.05;;;0.80;;
14526;SDS011;7350;51.208;4.238;2023-04-16T01:35:32;2.90;;;0.90;;
14526;SDS011;7350;51.208;4.238;2023-04-16T01:38:00;1.83;;;0.70;;
14526;SDS011;7350;51.208;4.238;2023-04-16T01:40:27;1.95;;;0.70;;
14526;SDS011;7350;51.208;4.238;2023-04-16T01:42:54;1.92;;;1.00;;
14526;SDS011;7350;51.208;4.238;2023-04-16T01:45:21;2.05;;;0.90;;
14526;SDS011;7350;51.208;4.238;2023-04-16T01:47:48;0.77;;;0.77;;
14526;SDS011;7350;51.208;4.238;2023-04-16T01:50:16;1.40;;;0.75;;
14526;SDS011;7350;51.208;4.238;2023-04-16T01:52:43;1.92;;;0.95;;
14526;SDS011;7350;51.208;4.238;2023-04-16T01:55:12;1.23;;;0.90;;
14526;SDS011;7350;51.208;4.238;2023-04-16T01:57:39;2.33;;;0.90;;
14526;SDS011;7350;51.208;4.238;2023-04-16T02:00:07;1.80;;;1.05;;
14526;SDS011;7350;51.208;4.238;2023-04-16T02:02:34;1.95;;;0.90;;
14526;SDS011;7350;51.208;4.238;2023-04-16T02:05:01;1.10;;;0.90;;
14526;SDS011;7350;51.208;4.238;2023-04-16T02:07:29;1.67;;;1.00;;
14526;SDS011;7350;51.208;4.238;2023-04-16T02:09:56;2.17;;;1.10;;
14526;SDS011;7350;51.208;4.238;2023-04-16T02:12:25;1.63;;;0.90;;
14526;SDS011;7350;51.208;4.238;2023-04-16T02:14:52;0.98;;;0.80;;
14526;SDS011;7350;51.208;4.238;2023-04-16T02:17:19;1.90;;;1.00;;
14526;SDS011;7350;51.208;4.238;2023-04-16T02:19:46;1.25;;;0.80;;
14526;SDS011;7350;51.208;4.238;2023-04-16T02:22:13;1.52;;;1.00;;
14526;SDS011;7350;51.208;4.238;2023-04-16T02:24:40;2.17;;;0.90;;
14526;SDS011;7350;51.208;4.238;2023-04-16T02:27:07;1.20;;;0.98;;
14526;SDS011;7350;51.208;4.238;2023-04-16T02:29:35;1.88;;;1.00;;
14526;SDS011;7350;51.208;4.238;2023-04-16T02:32:02;2.55;;;1.10;;
14526;SDS011;7350;51.208;4.238;2023-04-16T02:34:29;2.35;;;1.15;;
14526;SDS011;7350;51.208;4.238;2023-04-16T02:36:58;1.83;;;1.05;;
14526;SDS011;7350;51.208;4.238;2023-04-16T02:39:25;2.38;;;1.08;;
14526;SDS011;7350;51.208;4.238;2023-04-16T02:41:52;2.28;;;1.20;;
14526;SDS011;7350;51.208;4.238;2023-04-16T02:44:19;1.27;;;0.85;;
14526;SDS011;7350;51.208;4.238;2023-04-16T02:46:47;1.20;;;0.90;;
14526;SDS011;7350;51.208;4.238;2023-04-16T02:49:14;2.60;;;1.33;;
14526;SDS011;7350;51.208;4.238;2023-04-16T02:51:41;3.10;;;1.15;;
14526;SDS011;7350;51.208;4.238;2023-04-16T02:54:08;1.67;;;0.95;;
14526;SDS011;7350;51.208;4.238;2023-04-16T02:56:35;1.98;;;1.08;;
14526;SDS011;7350;51.208;4.238;2023-04-16T02:59:02;1.40;;;1.00;;
14526;SDS011;7350;51.208;4.238;2023-04-16T03:01:29;1.48;;;1.00;;
14526;SDS011;7350;51.208;4.238;2023-04-16T03:03:57;1.77;;;1.10;;
14526;SDS011;7350;51.208;4.238;2023-04-16T03:06:24;1.42;;;1.10;;
14526;SDS011;7350;51.208;4.238;2023-04-16T03:08:51;0.90;;;0.82;;
14526;SDS011;7350;51.208;4.238;2023-04-16T03:11:19;1.02;;;0.98;;
14526;SDS011;7350;51.208;4.238;2023-04-16T03:13:45;2.47;;;1.17;;
14526;SDS011;7350;51.208;4.238;2023-04-16T03:16:12;1.08;;;0.77;;
14526;SDS011;7350;51.208;4.238;2023-04-16T03:18:40;3.20;;;1.30;;
14526;SDS011;7350;51.208;4.238;2023-04-16T03:21:08;2.05;;;0.90;;
14526;SDS011;7350;51.208;4.238;2023-04-16T03:23:35;1.30;;;1.00;;
14526;SDS011;7350;51.208;4.238;2023-04-16T03:26:02;1.00;;;1.00;;
14526;SDS011;7350;51.208;4.238;2023-04-16T03:28:29;1.27;;;0.90;;
14526;SDS011;7350;51.208;4.238;2023-04-16T03:30:56;1.75;;;0.82;;
14526;SDS011;7350;51.208;4.238;2023-04-16T03:33:23;1.52;;;1.20;;
14526;SDS011;7350;51.208;4.238;2023-04-16T03:35:53;4.97;;;1.00;;
14526;SDS011;7350;51.208;4.238;2023-04-16T03:38:23;2.25;;;1.17;;
14526;SDS011;7350;51.208;4.238;2023-04-16T03:40:51;2.10;;;0.93;;
14526;SDS011;7350;51.208;4.238;2023-04-16T03:43:17;2.95;;;1.00;;
14526;SDS011;7350;51.208;4.238;2023-04-16T03:45:45;2.35;;;1.00;;
14526;SDS011;7350;51.208;4.238;2023-04-16T03:48:12;1.85;;;1.15;;
14526;SDS011;7350;51.208;4.238;2023-04-16T03:50:39;1.15;;;0.90;;
14526;SDS011;7350;51.208;4.238;2023-04-16T03:53:10;1.40;;;0.90;;
14526;SDS011;7350;51.208;4.238;2023-04-16T03:55:38;1.80;;;1.20;;
14526;SDS011;7350;51.208;4.238;2023-04-16T03:58:05;1.80;;;0.82;;
14526;SDS011;7350;51.208;4.238;2023-04-16T04:00:32;2.05;;;1.00;;
14526;SDS011;7350;51.208;4.238;2023-04-16T04:02:59;1.67;;;0.93;;
14526;SDS011;7350;51.208;4.238;2023-04-16T04:05:26;4.65;;;1.20;;
14526;SDS011;7350;51.208;4.238;2023-04-16T04:07:53;2.20;;;1.00;;
14526;SDS011;7350;51.208;4.238;2023-04-16T04:10:20;2.25;;;1.08;;
14526;SDS011;7350;51.208;4.238;2023-04-16T04:12:48;1.55;;;1.15;;
14526;SDS011;7350;51.208;4.238;2023-04-16T04:15:15;3.15;;;1.45;;
14526;SDS011;7350;51.208;4.238;2023-04-16T04:17:42;1.48;;;0.90;;
14526;SDS011;7350;51.208;4.238;2023-04-16T04:20:10;1.88;;;1.10;;
14526;SDS011;7350;51.208;4.238;2023-04-16T04:22:37;1.48;;;0.90;;
14526;SDS011;7350;51.208;4.238;2023-04-16T04:25:05;1.80;;;0.85;;
14526;SDS011;7350;51.208;4.238;2023-04-16T04:27:32;2.20;;;0.93;;
14526;SDS011;7350;51.208;4.238;2023-04-16T04:30:00;1.85;;;1.00;;
14526;SDS011;7350;51.208;4.238;2023-04-16T04:32:28;1.65;;;0.80;;
14526;SDS011;7350;51.208;4.238;2023-04-16T04:34:55;1.60;;;1.08;;
14526;SDS011;7350;51.208;4.238;2023-04-16T04:37:22;1.30;;;1.00;;
14526;SDS011;7350;51.208;4.238;2023-04-16T04:39:49;1.63;;;0.90;;
14526;SDS011;7350;51.208;4.238;2023-04-16T04:42:16;1.75;;;1.10;;
14526;SDS011;7350;51.208;4.238;2023-04-16T04:44:44;1.88;;;0.95;;
14526;SDS011;7350;51.208;4.238;2023-04-16T04:47:12;2.50;;;0.90;;
14526;SDS011;7350;51.208;4.238;2023-04-16T04:49:40;1.88;;;1.02;;
14526;SDS011;7350;51.208;4.238;2023-04-16T04:52:07;1.17;;;1.00;;
14526;SDS011;7350;51.208;4.238;2023-04-16T04:54:34;2.10;;;0.98;;
14526;SDS011;7350;51.208;4.238;2023-04-16T04:57:01;1.50;;;0.77;;
14526;SDS011;7350;51.208;4.238;2023-04-16T04:59:28;2.83;;;0.90;;
14526;SDS011;7350;51.208;4.238;2023-04-16T05:01:54;1.50;;;0.80;;
14526;SDS011;7350;51.208;4.238;2023-04-16T05:04:23;3.20;;;1.08;;
14526;SDS011;7350;51.208;4.238;2023-04-16T05:06:50;2.03;;;0.90;;
14526;SDS011;7350;51.208;4.238;2023-04-16T05:09:17;2.75;;;1.10;;
14526;SDS011;7350;51.208;4.238;2023-04-16T05:11:44;0.90;;;0.68;;
14526;SDS011;7350;51.208;4.238;2023-04-16T05:14:11;80.57;;;28.25;;
14526;SDS011;7350;51.208;4.238;2023-04-16T05:16:38;921.45;;;388.55;;
14526;SDS011;7350;51.208;4.238;2023-04-16T05:19:04;1833.80;;;783.95;;
14526;SDS011;7350;51.208;4.238;2023-04-16T05:21:33;1999.90;;;999.90;;
14526;SDS011;7350;51.208;4.238;2023-04-16T05:24:00;1999.90;;;848.22;;
14526;SDS011;7350;51.208;4.238;2023-04-16T05:26:27;692.80;;;308.02;;
14526;SDS011;7350;51.208;4.238;2023-04-16T05:28:55;1195.05;;;535.63;;
14526;SDS011;7350;51.208;4.238;2023-04-16T05:31:22;1999.90;;;818.97;;
14526;SDS011;7350;51.208;4.238;2023-04-16T05:33:48;1805.63;;;748.70;;
14526;SDS011;7350;51.208;4.238;2023-04-16T05:36:15;1577.93;;;693.47;;
14526;SDS011;7350;51.208;4.238;2023-04-16T05:38:44;1488.90;;;670.15;;
14526;SDS011;7350;51.208;4.238;2023-04-16T05:41:11;1317.25;;;603.30;;
14526;SDS011;7350;51.208;4.238;2023-04-16T05:43:37;1205.60;;;576.75;;
14526;SDS011;7350;51.208;4.238;2023-04-16T05:46:04;1081.43;;;524.22;;
14526;SDS011;7350;51.208;4.238;2023-04-16T05:48:31;992.35;;;491.13;;
14526;SDS011;7350;51.208;4.238;2023-04-16T05:50:58;888.90;;;437.05;;
14526;SDS011;7350;51.208;4.238;2023-04-16T05:53:26;741.05;;;361.23;;
14526;SDS011;7350;51.208;4.238;2023-04-16T05:55:54;655.72;;;318.63;;
14526;SDS011;7350;51.208;4.238;2023-04-16T05:58:21;641.95;;;317.02;;
14526;SDS011;7350;51.208;4.238;2023-04-16T06:00:48;604.10;;;292.65;;
14526;SDS011;7350;51.208;4.238;2023-04-16T06:03:15;607.70;;;297.02;;
14526;SDS011;7350;51.208;4.238;2023-04-16T06:05:42;592.85;;;294.73;;
14526;SDS011;7350;51.208;4.238;2023-04-16T06:08:10;559.17;;;262.35;;
14526;SDS011;7350;51.208;4.238;2023-04-16T06:10:36;506.15;;;240.55;;
14526;SDS011;7350;51.208;4.238;2023-04-16T06:13:05;456.10;;;207.38;;
14526;SDS011;7350;51.208;4.238;2023-04-16T06:15:32;446.83;;;199.38;;
14526;SDS011;7350;51.208;4.238;2023-04-16T06:17:59;430.02;;;183.93;;
14526;SDS011;7350;51.208;4.238;2023-04-16T06:20:26;404.73;;;184.05;;
14526;SDS011;7350;51.208;4.238;2023-04-16T06:22:54;416.70;;;182.55;;
14526;SDS011;7350;51.208;4.238;2023-04-16T06:25:21;420.15;;;184.48;;
14526;SDS011;7350;51.208;4.238;2023-04-16T06:27:48;411.92;;;185.38;;
14526;SDS011;7350;51.208;4.238;2023-04-16T06:30:17;403.33;;;175.90;;
14526;SDS011;7350;51.208;4.238;2023-04-16T06:32:45;373.83;;;158.35;;
14526;SDS011;7350;51.208;4.238;2023-04-16T06:35:12;363.20;;;155.20;;
14526;SDS011;7350;51.208;4.238;2023-04-16T06:37:38;350.15;;;157.18;;
14526;SDS011;7350;51.208;4.238;2023-04-16T06:40:06;342.10;;;148.63;;
14526;SDS011;7350;51.208;4.238;2023-04-16T06:42:33;331.33;;;141.68;;
14526;SDS011;7350;51.208;4.238;2023-04-16T06:45:00;293.75;;;128.70;;
14526;SDS011;7350;51.208;4.238;2023-04-16T06:47:29;279.20;;;121.95;;
14526;SDS011;7350;51.208;4.238;2023-04-16T06:49:56;266.50;;;120.00;;
14526;SDS011;7350;51.208;4.238;2023-04-16T06:52:23;274.77;;;119.53;;
14526;SDS011;7350;51.208;4.238;2023-04-16T06:54:50;250.88;;;109.07;;
14526;SDS011;7350;51.208;4.238;2023-04-16T06:57:17;227.30;;;102.65;;
14526;SDS011;7350;51.208;4.238;2023-04-16T06:59:44;208.75;;;87.35;;
14526;SDS011;7350;51.208;4.238;2023-04-16T07:02:10;219.65;;;95.65;;
14526;SDS011;7350;51.208;4.238;2023-04-16T07:04:39;202.43;;;86.50;;
14526;SDS011;7350;51.208;4.238;2023-04-16T07:07:06;194.07;;;83.38;;
14526;SDS011;7350;51.208;4.238;2023-04-16T07:09:33;185.55;;;80.53;;
14526;SDS011;7350;51.208;4.238;2023-04-16T07:12:00;177.88;;;77.10;;
14526;SDS011;7350;51.208;4.238;2023-04-16T07:14:27;173.02;;;73.68;;
14526;SDS011;7350;51.208;4.238;2023-04-16T07:16:54;164.90;;;70.80;;
14526;SDS011;7350;51.208;4.238;2023-04-16T07:19:21;158.75;;;71.57;;
14526;SDS011;7350;51.208;4.238;2023-04-16T07:21:49;153.95;;;68.30;;
14526;SDS011;7350;51.208;4.238;2023-04-16T07:24:16;152.15;;;64.05;;
14526;SDS011;7350;51.208;4.238;2023-04-16T07:26:43;152.90;;;63.42;;
14526;SDS011;7350;51.208;4.238;2023-04-16T07:29:10;146.38;;;63.33;;
14526;SDS011;7350;51.208;4.238;2023-04-16T07:31:37;143.95;;;59.92;;
14526;SDS011;7350;51.208;4.238;2023-04-16T07:34:04;126.07;;;55.42;;
14526;SDS011;7350;51.208;4.238;2023-04-16T07:36:31;124.68;;;53.80;;
14526;SDS011;7350;51.208;4.238;2023-04-16T07:38:59;118.05;;;52.38;;
14526;SDS011;7350;51.208;4.238;2023-04-16T07:41:26;113.95;;;51.25;;
14526;SDS011;7350;51.208;4.238;2023-04-16T07:43:54;110.80;;;49.55;;
14526;SDS011;7350;51.208;4.238;2023-04-16T07:46:22;106.13;;;47.33;;
14526;SDS011;7350;51.208;4.238;2023-04-16T07:48:49;104.88;;;46.63;;
14526;SDS011;7350;51.208;4.238;2023-04-16T07:51:16;104.03;;;46.33;;
14526;SDS011;7350;51.208;4.238;2023-04-16T07:53:43;102.28;;;46.97;;
14526;SDS011;7350;51.208;4.238;2023-04-16T07:56:11;96.38;;;44.28;;
14526;SDS011;7350;51.208;4.238;2023-04-16T07:58:38;100.20;;;44.60;;
14526;SDS011;7350;51.208;4.238;2023-04-16T08:01:05;98.55;;;43.60;;
14526;SDS011;7350;51.208;4.238;2023-04-16T08:03:32;85.90;;;40.97;;
14526;SDS011;7350;51.208;4.238;2023-04-16T08:05:59;89.25;;;40.25;;
14526;SDS011;7350;51.208;4.238;2023-04-16T08:08:26;88.25;;;38.97;;
14526;SDS011;7350;51.208;4.238;2023-04-16T08:10:53;80.35;;;39.17;;
14526;SDS011;7350;51.208;4.238;2023-04-16T08:13:22;79.65;;;36.47;;
14526;SDS011;7350;51.208;4.238;2023-04-16T08:15:49;77.85;;;36.88;;
14526;SDS011;7350;51.208;4.238;2023-04-16T08:18:17;71.35;;;35.65;;
14526;SDS011;7350;51.208;4.238;2023-04-16T08:20:44;77.47;;;35.13;;
14526;SDS011;7350;51.208;4.238;2023-04-16T08:23:11;75.65;;;35.28;;
14526;SDS011;7350;51.208;4.238;2023-04-16T08:25:38;74.05;;;34.67;;
14526;SDS011;7350;51.208;4.238;2023-04-16T08:28:05;66.28;;;32.60;;
14526;SDS011;7350;51.208;4.238;2023-04-16T08:30:33;67.40;;;32.58;;
14526;SDS011;7350;51.208;4.238;2023-04-16T08:33:00;66.15;;;30.75;;
14526;SDS011;7350;51.208;4.238;2023-04-16T08:35:28;63.75;;;30.92;;
14526;SDS011;7350;51.208;4.238;2023-04-16T08:37:55;66.45;;;31.10;;
14526;SDS011;7350;51.208;4.238;2023-04-16T08:40:23;65.32;;;29.67;;
14526;SDS011;7350;51.208;4.238;2023-04-16T08:42:52;59.10;;;29.13;;
14526;SDS011;7350;51.208;4.238;2023-04-16T08:45:20;54.25;;;27.80;;
14526;SDS011;7350;51.208;4.238;2023-04-16T08:47:50;59.83;;;27.80;;
14526;SDS011;7350;51.208;4.238;2023-04-16T08:50:21;51.03;;;26.27;;
14526;SDS011;7350;51.208;4.238;2023-04-16T08:52:50;49.20;;;25.23;;
14526;SDS011;7350;51.208;4.238;2023-04-16T08:55:18;50.13;;;25.15;;
14526;SDS011;7350;51.208;4.238;2023-04-16T08:57:49;49.60;;;25.52;;
14526;SDS011;7350;51.208;4.238;2023-04-16T09:00:19;48.35;;;25.25;;
14526;SDS011;7350;51.208;4.238;2023-04-16T09:02:46;46.83;;;25.10;;
14526;SDS011;7350;51.208;4.238;2023-04-16T09:05:15;45.67;;;23.85;;
14526;SDS011;7350;51.208;4.238;2023-04-16T09:07:45;48.65;;;23.95;;
14526;SDS011;7350;51.208;4.238;2023-04-16T09:10:13;47.05;;;23.70;;
14526;SDS011;7350;51.208;4.238;2023-04-16T09:12:41;44.30;;;22.52;;
14526;SDS011;7350;51.208;4.238;2023-04-16T09:15:09;43.90;;;22.58;;
14526;SDS011;7350;51.208;4.238;2023-04-16T09:17:36;43.35;;;22.13;;
14526;SDS011;7350;51.208;4.238;2023-04-16T09:20:04;42.97;;;21.73;;
14526;SDS011;7350;51.208;4.238;2023-04-16T09:22:34;40.15;;;20.73;;
14526;SDS011;7350;51.208;4.238;2023-04-16T09:25:01;42.55;;;21.08;;
14526;SDS011;7350;51.208;4.238;2023-04-16T09:27:29;40.38;;;19.88;;
14526;SDS011;7350;51.208;4.238;2023-04-16T09:29:56;35.05;;;18.27;;
14526;SDS011;7350;51.208;4.238;2023-04-16T09:32:24;34.13;;;18.40;;
14526;SDS011;7350;51.208;4.238;2023-04-16T09:34:52;35.35;;;18.35;;
14526;SDS011;7350;51.208;4.238;2023-04-16T09:37:21;33.70;;;17.50;;
14526;SDS011;7350;51.208;4.238;2023-04-16T09:39:53;35.33;;;18.23;;
14526;SDS011;7350;51.208;4.238;2023-04-16T09:42:22;39.63;;;17.63;;
14526;SDS011;7350;51.208;4.238;2023-04-16T09:44:51;32.22;;;16.67;;
14526;SDS011;7350;51.208;4.238;2023-04-16T09:47:19;32.17;;;16.92;;
14526;SDS011;7350;51.208;4.238;2023-04-16T09:49:47;32.55;;;16.90;;
14526;SDS011;7350;51.208;4.238;2023-04-16T09:52:14;30.48;;;15.57;;
14526;SDS011;7350;51.208;4.238;2023-04-16T09:54:45;26.65;;;15.02;;
14526;SDS011;7350;51.208;4.238;2023-04-16T09:57:16;26.80;;;14.90;;
14526;SDS011;7350;51.208;4.238;2023-04-16T09:59:46;26.73;;;14.68;;
14526;SDS011;7350;51.208;4.238;2023-04-16T10:02:13;27.70;;;14.52;;
14526;SDS011;7350;51.208;4.238;2023-04-16T10:04:47;25.80;;;13.27;;
14526;SDS011;7350;51.208;4.238;2023-04-16T10:07:15;24.48;;;12.93;;
14526;SDS011;7350;51.208;4.238;2023-04-16T10:09:43;22.08;;;12.82;;
14526;SDS011;7350;51.208;4.238;2023-04-16T10:12:09;24.02;;;12.82;;
14526;SDS011;7350;51.208;4.238;2023-04-16T10:14:39;22.42;;;13.38;;
14526;SDS011;7350;51.208;4.238;2023-04-16T10:17:06;24.05;;;13.02;;
14526;SDS011;7350;51.208;4.238;2023-04-16T10:19:34;25.27;;;13.48;;
14526;SDS011;7350;51.208;4.238;2023-04-16T10:22:01;23.42;;;12.85;;
14526;SDS011;7350;51.208;4.238;2023-04-16T10:24:29;23.65;;;12.60;;
14526;SDS011;7350;51.208;4.238;2023-04-16T10:26:59;24.92;;;12.05;;
14526;SDS011;7350;51.208;4.238;2023-04-16T10:29:27;23.83;;;11.98;;
14526;SDS011;7350;51.208;4.238;2023-04-16T10:31:56;20.27;;;11.40;;
14526;SDS011;7350;51.208;4.238;2023-04-16T10:34:24;21.50;;;11.00;;
14526;SDS011;7350;51.208;4.238;2023-04-16T10:36:53;19.95;;;11.18;;
14526;SDS011;7350;51.208;4.238;2023-04-16T10:39:21;17.80;;;10.18;;
14526;SDS011;7350;51.208;4.238;2023-04-16T10:41:49;18.45;;;10.50;;
14526;SDS011;7350;51.208;4.238;2023-04-16T10:44:17;17.42;;;10.38;;
14526;SDS011;7350;51.208;4.238;2023-04-16T10:46:45;17.50;;;9.98;;
14526;SDS011;7350;51.208;4.238;2023-04-16T10:49:16;17.92;;;9.40;;
14526;SDS011;7350;51.208;4.238;2023-04-16T10:51:54;15.43;;;8.80;;
14526;SDS011;7350;51.208;4.238;2023-04-16T10:54:22;18.15;;;9.77;;
14526;SDS011;7350;51.208;4.238;2023-04-16T10:56:51;14.95;;;8.95;;
14526;SDS011;7350;51.208;4.238;2023-04-16T10:59:18;14.98;;;8.45;;
14526;SDS011;7350;51.208;4.238;2023-04-16T11:01:47;15.90;;;9.00;;
14526;SDS011;7350;51.208;4.238;2023-04-16T11:04:27;16.90;;;8.73;;
14526;SDS011;7350;51.208;4.238;2023-04-16T11:07:01;16.33;;;9.13;;
14526;SDS011;7350;51.208;4.238;2023-04-16T11:09:43;15.63;;;8.77;;
14526;SDS011;7350;51.208;4.238;2023-04-16T11:12:11;18.67;;;9.18;;
14526;SDS011;7350;51.208;4.238;2023-04-16T11:14:39;13.63;;;8.15;;
14526;SDS011;7350;51.208;4.238;2023-04-16T11:17:07;14.40;;;8.05;;
14526;SDS011;7350;51.208;4.238;2023-04-16T11:19:36;13.82;;;7.45;;
14526;SDS011;7350;51.208;4.238;2023-04-16T11:22:03;14.95;;;8.05;;
14526;SDS011;7350;51.208;4.238;2023-04-16T11:24:30;13.73;;;7.55;;
14526;SDS011;7350;51.208;4.238;2023-04-16T11:26:57;11.77;;;7.20;;
14526;SDS011;7350;51.208;4.238;2023-04-16T11:29:25;12.00;;;7.03;;
14526;SDS011;7350;51.208;4.238;2023-04-16T11:31:53;14.35;;;7.47;;
14526;SDS011;7350;51.208;4.238;2023-04-16T11:34:20;11.55;;;6.70;;
14526;SDS011;7350;51.208;4.238;2023-04-16T11:36:50;11.50;;;7.45;;
14526;SDS011;7350;51.208;4.238;2023-04-16T11:39:17;12.80;;;7.03;;
14526;SDS011;7350;51.208;4.238;2023-04-16T11:41:45;10.27;;;6.60;;
14526;SDS011;7350;51.208;4.238;2023-04-16T11:44:16;12.00;;;6.68;;
14526;SDS011;7350;51.208;4.238;2023-04-16T11:46:48;9.48;;;5.78;;
14526;SDS011;7350;51.208;4.238;2023-04-16T11:49:15;11.27;;;6.38;;
14526;SDS011;7350;51.208;4.238;2023-04-16T11:51:43;10.10;;;5.85;;
14526;SDS011;7350;51.208;4.238;2023-04-16T11:54:20;9.15;;;5.00;;
14526;SDS011;7350;51.208;4.238;2023-04-16T11:56:49;10.48;;;5.72;;
14526;SDS011;7350;51.208;4.238;2023-04-16T11:59:18;10.60;;;5.72;;
14526;SDS011;7350;51.208;4.238;2023-04-16T12:01:47;9.15;;;5.57;;
14526;SDS011;7350;51.208;4.238;2023-04-16T12:04:15;11.68;;;6.43;;
14526;SDS011;7350;51.208;4.238;2023-04-16T12:07:03;9.77;;;5.78;;
14526;SDS011;7350;51.208;4.238;2023-04-16T12:09:35;10.23;;;5.30;;
14526;SDS011;7350;51.208;4.238;2023-04-16T12:12:03;6.97;;;4.70;;
14526;SDS011;7350;51.208;4.238;2023-04-16T12:14:31;8.40;;;4.97;;
14526;SDS011;7350;51.208;4.238;2023-04-16T12:19:47;12.20;;;6.07;;
14526;SDS011;7350;51.208;4.238;2023-04-16T12:22:15;8.80;;;5.45;;
14526;SDS011;7350;51.208;4.238;2023-04-16T12:24:44;8.73;;;5.00;;
14526;SDS011;7350;51.208;4.238;2023-04-16T12:27:11;7.53;;;5.18;;
14526;SDS011;7350;51.208;4.238;2023-04-16T12:29:37;8.60;;;4.68;;
14526;SDS011;7350;51.208;4.238;2023-04-16T12:32:04;10.00;;;5.05;;
14526;SDS011;7350;51.208;4.238;2023-04-16T12:34:48;7.60;;;4.55;;
14526;SDS011;7350;51.208;4.238;2023-04-16T12:37:16;8.32;;;5.07;;
14526;SDS011;7350;51.208;4.238;2023-04-16T12:39:44;9.13;;;5.38;;
14526;SDS011;7350;51.208;4.238;2023-04-16T12:42:14;9.00;;;5.10;;
14526;SDS011;7350;51.208;4.238;2023-04-16T12:44:41;7.85;;;4.63;;
14526;SDS011;7350;51.208;4.238;2023-04-16T12:47:10;7.72;;;4.57;;
14526;SDS011;7350;51.208;4.238;2023-04-16T12:49:37;8.13;;;4.70;;
14526;SDS011;7350;51.208;4.238;2023-04-16T12:52:04;6.95;;;4.25;;
14526;SDS011;7350;51.208;4.238;2023-04-16T12:54:31;8.95;;;4.68;;
14526;SDS011;7350;51.208;4.238;2023-04-16T12:56:59;7.07;;;4.80;;
14526;SDS011;7350;51.208;4.238;2023-04-16T12:59:26;6.63;;;3.92;;
14526;SDS011;7350;51.208;4.238;2023-04-16T13:01:53;7.82;;;4.50;;
14526;SDS011;7350;51.208;4.238;2023-04-16T13:04:20;7.03;;;4.47;;
14526;SDS011;7350;51.208;4.238;2023-04-16T13:06:47;6.97;;;4.38;;
14526;SDS011;7350;51.208;4.238;2023-04-16T13:09:14;7.75;;;4.50;;
14526;SDS011;7350;51.208;4.238;2023-04-16T13:11:43;7.20;;;4.15;;
14526;SDS011;7350;51.208;4.238;2023-04-16T13:14:11;7.20;;;4.00;;
14526;SDS011;7350;51.208;4.238;2023-04-16T13:16:38;7.68;;;3.75;;
14526;SDS011;7350;51.208;4.238;2023-04-16T13:19:05;5.15;;;4.07;;
14526;SDS011;7350;51.208;4.238;2023-04-16T13:21:32;5.45;;;3.85;;
14526;SDS011;7350;51.208;4.238;2023-04-16T13:23:59;8.15;;;4.03;;
14526;SDS011;7350;51.208;4.238;2023-04-16T13:26:26;6.95;;;3.70;;
14526;SDS011;7350;51.208;4.238;2023-04-16T13:28:53;6.22;;;3.50;;
14526;SDS011;7350;51.208;4.238;2023-04-16T13:31:21;6.75;;;4.47;;
14526;SDS011;7350;51.208;4.238;2023-04-16T13:33:48;6.68;;;3.97;;
14526;SDS011;7350;51.208;4.238;2023-04-16T13:36:16;5.13;;;3.70;;
14526;SDS011;7350;51.208;4.238;2023-04-16T13:38:43;6.63;;;4.22;;
14526;SDS011;7350;51.208;4.238;2023-04-16T13:41:09;5.53;;;3.70;;
14526;SDS011;7350;51.208;4.238;2023-04-16T13:43:36;5.80;;;3.70;;
14526;SDS011;7350;51.208;4.238;2023-04-16T13:46:03;7.05;;;3.92;;
14526;SDS011;7350;51.208;4.238;2023-04-16T13:48:32;6.60;;;3.72;;
14526;SDS011;7350;51.208;4.238;2023-04-16T13:50:59;5.72;;;3.28;;
14526;SDS011;7350;51.208;4.238;2023-04-16T13:53:26;6.00;;;3.13;;
14526;SDS011;7350;51.208;4.238;2023-04-16T13:55:53;7.18;;;3.80;;
14526;SDS011;7350;51.208;4.238;2023-04-16T13:58:20;5.00;;;3.25;;
14526;SDS011;7350;51.208;4.238;2023-04-16T14:00:48;5.70;;;3.58;;
14526;SDS011;7350;51.208;4.238;2023-04-16T14:03:15;6.60;;;3.50;;
14526;SDS011;7350;51.208;4.238;2023-04-16T14:05:43;5.47;;;3.55;;
14526;SDS011;7350;51.208;4.238;2023-04-16T14:08:10;5.85;;;3.15;;
14526;SDS011;7350;51.208;4.238;2023-04-16T14:10:41;5.00;;;3.20;;
14526;SDS011;7350;51.208;4.238;2023-04-16T14:13:08;7.57;;;3.50;;
14526;SDS011;7350;51.208;4.238;2023-04-16T14:15:35;4.65;;;3.08;;
14526;SDS011;7350;51.208;4.238;2023-04-16T14:18:02;6.32;;;3.35;;
14526;SDS011;7350;51.208;4.238;2023-04-16T14:20:29;6.07;;;3.75;;
14526;SDS011;7350;51.208;4.238;2023-04-16T14:22:57;6.70;;;3.67;;
14526;SDS011;7350;51.208;4.238;2023-04-16T14:25:24;5.70;;;3.40;;
14526;SDS011;7350;51.208;4.238;2023-04-16T14:27:51;5.15;;;3.13;;
14526;SDS011;7350;51.208;4.238;2023-04-16T14:30:19;4.40;;;3.28;;
14526;SDS011;7350;51.208;4.238;2023-04-16T14:32:46;5.80;;;3.30;;
14526;SDS011;7350;51.208;4.238;2023-04-16T14:35:13;4.68;;;3.35;;
14526;SDS011;7350;51.208;4.238;2023-04-16T14:37:40;5.70;;;3.75;;
14526;SDS011;7350;51.208;4.238;2023-04-16T14:40:10;4.82;;;3.50;;
14526;SDS011;7350;51.208;4.238;2023-04-16T14:42:38;4.45;;;3.33;;
14526;SDS011;7350;51.208;4.238;2023-04-16T14:45:05;5.35;;;3.40;;
14526;SDS011;7350;51.208;4.238;2023-04-16T14:47:33;6.93;;;3.65;;
14526;SDS011;7350;51.208;4.238;2023-04-16T14:50:01;3.63;;;2.78;;
14526;SDS011;7350;51.208;4.238;2023-04-16T14:52:29;5.18;;;3.08;;